sensor_id;sensor_type;location;lat;lon;timestamp;pressure;altitude;pressure_sealevel;temperature;humidity
10958;BME280;5531;42.570;23.676;2023-05-20T00:00:10;92335.16;;;13.44;99.80
10958;BME280;5531;42.570;23.676;2023-05-20T00:02:39;92334.97;;;13.46;99.25
10958;BME280;5531;42.570;23.676;2023-05-20T00:05:08;92332.53;;;13.44;99.39
10958;BME280;5531;42.570;23.676;2023-05-20T00:07:37;92335.38;;;13.49;99.44
10958;BME280;5531;42.570;23.676;2023-05-20T00:10:07;92328.47;;;13.55;98.45
10958;BME280;5531;42.570;23.676;2023-05-20T00:12:39;92327.69;;;13.54;97.65
10958;BME280;5531;42.570;23.676;2023-05-20T00:15:09;92321.16;;;13.57;98.05
10958;BME280;5531;42.570;23.676;2023-05-20T00:17:39;92327.88;;;13.60;97.47
10958;BME280;5531;42.570;23.676;2023-05-20T00:20:09;92328.88;;;13.59;96.50
10958;BME280;5531;42.570;23.676;2023-05-20T00:22:38;92326.25;;;13.52;97.01
10958;BME280;5531;42.570;23.676;2023-05-20T00:25:08;92310.28;;;13.27;97.01
10958;BME280;5531;42.570;23.676;2023-05-20T00:27:42;92287.25;;;13.15;98.93
10958;BME280;5531;42.570;23.676;2023-05-20T00:30:11;92289.44;;;13.25;99.25
10958;BME280;5531;42.570;23.676;2023-05-20T00:32:40;92298.34;;;13.31;99.10
10958;BME280;5531;42.570;23.676;2023-05-20T00:35:09;92300.97;;;13.31;98.32
10958;BME280;5531;42.570;23.676;2023-05-20T00:37:38;92296.94;;;13.35;98.35
10958;BME280;5531;42.570;23.676;2023-05-20T00:40:08;92292.50;;;13.22;97.81
10958;BME280;5531;42.570;23.676;2023-05-20T00:42:37;92306.06;;;13.19;97.94
10958;BME280;5531;42.570;23.676;2023-05-20T00:45:09;92308.66;;;13.26;97.80
10958;BME280;5531;42.570;23.676;2023-05-20T00:47:38;92312.31;;;13.18;98.38
10958;BME280;5531;42.570;23.676;2023-05-20T00:50:09;92314.13;;;13.24;98.13
10958;BME280;5531;42.570;23.676;2023-05-20T00:52:38;92316.56;;;13.26;97.48
10958;BME280;5531;42.570;23.676;2023-05-20T00:55:10;92311.31;;;13.19;97.69
10958;BME280;5531;42.570;23.676;2023-05-20T00:57:39;92316.56;;;13.19;96.69
10958;BME280;5531;42.570;23.676;2023-05-20T01:00:12;92311.94;;;13.01;97.36
10958;BME280;5531;42.570;23.676;2023-05-20T01:02:41;92313.13;;;13.05;97.61
10958;BME280;5531;42.570;23.676;2023-05-20T01:05:10;92308.69;;;12.92;97.83
10958;BME280;5531;42.570;23.676;2023-05-20T01:07:39;92296.38;;;12.73;99.69
10958;BME280;5531;42.570;23.676;2023-05-20T01:10:09;92297.00;;;12.68;100.00
10958;BME280;5531;42.570;23.676;2023-05-20T01:12:42;92291.34;;;12.71;100.00
10958;BME280;5531;42.570;23.676;2023-05-20T01:15:15;92301.41;;;12.74;100.00
10958;BME280;5531;42.570;23.676;2023-05-20T01:17:46;92288.50;;;12.79;100.00
10958;BME280;5531;42.570;23.676;2023-05-20T01:20:16;92305.06;;;12.80;100.00
10958;BME280;5531;42.570;23.676;2023-05-20T01:22:52;92292.91;;;12.86;100.00
10958;BME280;5531;42.570;23.676;2023-05-20T01:25:21;92297.78;;;12.62;100.00
10958;BME280;5531;42.570;23.676;2023-05-20T01:27:52;92301.22;;;12.56;100.00
10958;BME280;5531;42.570;23.676;2023-05-20T01:30:23;92308.72;;;12.65;100.00
10958;BME280;5531;42.570;23.676;2023-05-20T01:33:01;92305.06;;;12.67;100.00
10958;BME280;5531;42.570;23.676;2023-05-20T01:35:33;92302.66;;;12.72;100.00
10958;BME280;5531;42.570;23.676;2023-05-20T01:38:07;92302.66;;;12.72;100.00
10958;BME280;5531;42.570;23.676;2023-05-20T01:40:36;92298.00;;;12.54;100.00
10958;BME280;5531;42.570;23.676;2023-05-20T01:43:06;92305.47;;;12.63;100.00
10958;BME280;5531;42.570;23.676;2023-05-20T01:45:36;92304.06;;;12.61;100.00
10958;BME280;5531;42.570;23.676;2023-05-20T01:48:05;92300.41;;;12.55;100.00
10958;BME280;5531;42.570;23.676;2023-05-20T01:50:34;92300.41;;;12.55;100.00
10958;BME280;5531;42.570;23.676;2023-05-20T01:53:06;92299.00;;;12.59;100.00
10958;BME280;5531;42.570;23.676;2023-05-20T01:55:35;92295.38;;;12.54;100.00
10958;BME280;5531;42.570;23.676;2023-05-20T01:58:04;92293.72;;;12.46;100.00
10958;BME280;5531;42.570;23.676;2023-05-20T02:00:34;92289.28;;;12.46;100.00
10958;BME280;5531;42.570;23.676;2023-05-20T02:03:03;92294.97;;;12.50;100.00
10958;BME280;5531;42.570;23.676;2023-05-20T02:05:32;92296.97;;;12.55;100.00
10958;BME280;5531;42.570;23.676;2023-05-20T02:08:01;92289.91;;;12.49;100.00
10958;BME280;5531;42.570;23.676;2023-05-20T02:10:32;92295.38;;;12.47;100.00
10958;BME280;5531;42.570;23.676;2023-05-20T02:13:01;92288.47;;;12.33;100.00
10958;BME280;5531;42.570;23.676;2023-05-20T02:15:30;92290.69;;;12.36;100.00
10958;BME280;5531;42.570;23.676;2023-05-20T02:17:59;92286.25;;;12.36;100.00
10958;BME280;5531;42.570;23.676;2023-05-20T02:20:30;92289.66;;;12.37;100.00
10958;BME280;5531;42.570;23.676;2023-05-20T02:22:59;92276.13;;;12.40;100.00
10958;BME280;5531;42.570;23.676;2023-05-20T02:25:33;92286.03;;;12.38;100.00
10958;BME280;5531;42.570;23.676;2023-05-20T02:28:02;92277.75;;;12.34;100.00
10958;BME280;5531;42.570;23.676;2023-05-20T02:30:35;92280.59;;;12.33;100.00
10958;BME280;5531;42.570;23.676;2023-05-20T02:33:04;92283.22;;;12.39;100.00
10958;BME280;5531;42.570;23.676;2023-05-20T02:35:34;92283.63;;;12.50;100.00
10958;BME280;5531;42.570;23.676;2023-05-20T02:38:03;92269.47;;;12.57;100.00
10958;BME280;5531;42.570;23.676;2023-05-20T02:40:35;92274.13;;;12.62;100.00
10958;BME280;5531;42.570;23.676;2023-05-20T02:43:04;92264.22;;;12.64;100.00
10958;BME280;5531;42.570;23.676;2023-05-20T02:45:33;92269.88;;;12.61;100.00
10958;BME280;5531;42.570;23.676;2023-05-20T02:48:02;92270.91;;;12.60;100.00
10958;BME280;5531;42.570;23.676;2023-05-20T02:50:31;92270.28;;;12.64;100.00
10958;BME280;5531;42.570;23.676;2023-05-20T02:53:00;92278.59;;;12.68;100.00
10958;BME280;5531;42.570;23.676;2023-05-20T02:55:29;92279.59;;;12.67;100.00
10958;BME280;5531;42.570;23.676;2023-05-20T02:58:00;92270.72;;;12.61;100.00
10958;BME280;5531;42.570;23.676;2023-05-20T03:00:29;92277.56;;;12.62;100.00
10958;BME280;5531;42.570;23.676;2023-05-20T03:03:05;92280.19;;;12.62;100.00
10958;BME280;5531;42.570;23.676;2023-05-20T03:05:35;92280.78;;;12.64;100.00
10958;BME280;5531;42.570;23.676;2023-05-20T03:08:08;92285.88;;;12.73;100.00
10958;BME280;5531;42.570;23.676;2023-05-20T03:10:37;92288.28;;;12.74;100.00
10958;BME280;5531;42.570;23.676;2023-05-20T03:13:09;92287.47;;;12.74;100.00
10958;BME280;5531;42.570;23.676;2023-05-20T03:15:40;92298.38;;;12.77;100.00
10958;BME280;5531;42.570;23.676;2023-05-20T03:18:10;92303.25;;;12.80;100.00
10958;BME280;5531;42.570;23.676;2023-05-20T03:20:40;92306.47;;;12.82;100.00
10958;BME280;5531;42.570;23.676;2023-05-20T03:23:09;92299.63;;;12.81;100.00
10958;BME280;5531;42.570;23.676;2023-05-20T03:25:39;92302.03;;;12.83;100.00
10958;BME280;5531;42.570;23.676;2023-05-20T03:28:11;92297.78;;;12.82;100.00
10958;BME280;5531;42.570;23.676;2023-05-20T03:30:40;92299.41;;;12.96;100.00
10958;BME280;5531;42.570;23.676;2023-05-20T03:33:09;92293.13;;;13.04;100.00
10958;BME280;5531;42.570;23.676;2023-05-20T03:35:38;92286.84;;;13.05;100.00
10958;BME280;5531;42.570;23.676;2023-05-20T03:38:07;92300.81;;;13.06;100.00
10958;BME280;5531;42.570;23.676;2023-05-20T03:40:36;92294.72;;;13.12;100.00
10958;BME280;5531;42.570;23.676;2023-05-20T03:43:05;92297.97;;;13.14;99.60
10958;BME280;5531;42.570;23.676;2023-05-20T03:45:37;92296.94;;;13.15;99.98
10958;BME280;5531;42.570;23.676;2023-05-20T03:48:06;92301.78;;;13.18;99.77
10958;BME280;5531;42.570;23.676;2023-05-20T03:50:35;92302.19;;;13.28;99.44
10958;BME280;5531;42.570;23.676;2023-05-20T03:53:04;92305.06;;;13.33;99.88
10958;BME280;5531;42.570;23.676;2023-05-20T03:55:33;92312.13;;;13.33;98.98
10958;BME280;5531;42.570;23.676;2023-05-20T03:58:03;92300.19;;;13.37;98.46
10958;BME280;5531;42.570;23.676;2023-05-20T04:00:32;92309.47;;;13.46;97.62
10958;BME280;5531;42.570;23.676;2023-05-20T04:03:04;92311.47;;;13.51;96.95
10958;BME280;5531;42.570;23.676;2023-05-20T04:05:34;92312.28;;;13.51;96.21
10958;BME280;5531;42.570;23.676;2023-05-20T04:08:04;92320.75;;;13.60;96.09
10958;BME280;5531;42.570;23.676;2023-05-20T04:10:34;92311.03;;;13.67;95.76
10958;BME280;5531;42.570;23.676;2023-05-20T04:13:03;92315.00;;;13.83;94.91
10958;BME280;5531;42.570;23.676;2023-05-20T04:15:34;92314.34;;;13.94;93.50
10958;BME280;5531;42.570;23.676;2023-05-20T04:18:06;92318.19;;;13.99;91.88
10958;BME280;5531;42.570;23.676;2023-05-20T04:20:35;92320.22;;;14.03;91.58
10958;BME280;5531;42.570;23.676;2023-05-20T04:23:06;92313.50;;;14.07;92.40
10958;BME280;5531;42.570;23.676;2023-05-20T04:25:35;92320.56;;;14.14;91.23
10958;BME280;5531;42.570;23.676;2023-05-20T04:28:06;92329.03;;;14.22;91.61
10958;BME280;5531;42.570;23.676;2023-05-20T04:30:35;92321.91;;;14.29;91.08
10958;BME280;5531;42.570;23.676;2023-05-20T04:33:07;92320.56;;;14.45;90.88
10958;BME280;5531;42.570;23.676;2023-05-20T04:35:36;92329.03;;;14.61;89.22
10958;BME280;5531;42.570;23.676;2023-05-20T04:38:06;92325.78;;;14.65;89.01
10958;BME280;5531;42.570;23.676;2023-05-20T04:40:35;92327.78;;;14.70;89.24
10958;BME280;5531;42.570;23.676;2023-05-20T04:43:04;92334.69;;;14.64;89.40
10958;BME280;5531;42.570;23.676;2023-05-20T04:45:33;92331.25;;;14.64;89.29
10958;BME280;5531;42.570;23.676;2023-05-20T04:48:06;92336.09;;;14.67;89.02
10958;BME280;5531;42.570;23.676;2023-05-20T04:50:36;92336.69;;;14.69;89.15
10958;BME280;5531;42.570;23.676;2023-05-20T04:53:06;92337.44;;;14.76;89.96
10958;BME280;5531;42.570;23.676;2023-05-20T04:55:35;92334.78;;;14.83;88.47
10958;BME280;5531;42.570;23.676;2023-05-20T04:58:04;92336.75;;;14.88;88.34
10958;BME280;5531;42.570;23.676;2023-05-20T05:00:34;92317.44;;;14.94;87.78
10958;BME280;5531;42.570;23.676;2023-05-20T05:03:06;92337.47;;;15.01;88.00
10958;BME280;5531;42.570;23.676;2023-05-20T05:05:35;92332.41;;;15.00;88.68
10958;BME280;5531;42.570;23.676;2023-05-20T05:08:05;92327.50;;;15.03;88.44
10958;BME280;5531;42.570;23.676;2023-05-20T05:10:35;92348.03;;;15.01;87.88
10958;BME280;5531;42.570;23.676;2023-05-20T05:13:04;92343.91;;;15.06;87.94
10958;BME280;5531;42.570;23.676;2023-05-20T05:15:33;92339.03;;;15.09;88.49
10958;BME280;5531;42.570;23.676;2023-05-20T05:18:02;92336.28;;;15.23;88.13
10958;BME280;5531;42.570;23.676;2023-05-20T05:20:33;92343.72;;;15.32;86.81
10958;BME280;5531;42.570;23.676;2023-05-20T05:23:02;92339.38;;;15.38;85.94
10958;BME280;5531;42.570;23.676;2023-05-20T05:25:32;92334.03;;;15.45;86.88
10958;BME280;5531;42.570;23.676;2023-05-20T05:28:01;92345.16;;;15.53;86.69
10958;BME280;5531;42.570;23.676;2023-05-20T05:30:30;92343.09;;;15.55;84.68
10958;BME280;5531;42.570;23.676;2023-05-20T05:32:59;92344.72;;;15.56;83.81
10958;BME280;5531;42.570;23.676;2023-05-20T05:35:28;92346.16;;;15.52;84.04
10958;BME280;5531;42.570;23.676;2023-05-20T05:37:59;92341.38;;;15.61;85.46
10958;BME280;5531;42.570;23.676;2023-05-20T05:40:28;92337.16;;;15.60;84.07
10958;BME280;5531;42.570;23.676;2023-05-20T05:42:57;92345.22;;;15.65;83.06
10958;BME280;5531;42.570;23.676;2023-05-20T05:45:26;92338.84;;;15.73;83.54
10958;BME280;5531;42.570;23.676;2023-05-20T05:47:55;92340.03;;;15.77;83.19
10958;BME280;5531;42.570;23.676;2023-05-20T05:50:24;92343.78;;;15.88;82.36
10958;BME280;5531;42.570;23.676;2023-05-20T05:52:53;92337.47;;;15.89;81.24
10958;BME280;5531;42.570;23.676;2023-05-20T05:55:25;92342.69;;;15.96;80.75
10958;BME280;5531;42.570;23.676;2023-05-20T05:57:54;92339.06;;;16.08;82.04
10958;BME280;5531;42.570;23.676;2023-05-20T06:00:23;92339.81;;;16.16;81.63
10958;BME280;5531;42.570;23.676;2023-05-20T06:02:52;92337.56;;;16.31;82.95
10958;BME280;5531;42.570;23.676;2023-05-20T06:05:21;92339.34;;;16.37;81.85
10958;BME280;5531;42.570;23.676;2023-05-20T06:07:50;92334.84;;;16.38;80.74
10958;BME280;5531;42.570;23.676;2023-05-20T06:10:20;92339.25;;;16.44;80.37
10958;BME280;5531;42.570;23.676;2023-05-20T06:12:51;92333.06;;;16.50;80.63
10958;BME280;5531;42.570;23.676;2023-05-20T06:15:20;92330.09;;;16.58;80.69
10958;BME280;5531;42.570;23.676;2023-05-20T06:17:49;92330.41;;;16.50;80.04
10958;BME280;5531;42.570;23.676;2023-05-20T06:20:18;92327.13;;;16.66;79.67
10958;BME280;5531;42.570;23.676;2023-05-20T06:22:47;92321.16;;;16.71;77.94
10958;BME280;5531;42.570;23.676;2023-05-20T06:25:16;92325.88;;;16.69;79.27
10958;BME280;5531;42.570;23.676;2023-05-20T06:27:47;92331.78;;;16.83;80.67
10958;BME280;5531;42.570;23.676;2023-05-20T06:30:19;92329.56;;;16.98;80.64
10958;BME280;5531;42.570;23.676;2023-05-20T06:32:48;92330.69;;;17.02;80.33
10958;BME280;5531;42.570;23.676;2023-05-20T06:35:17;92335.19;;;17.02;80.21
10958;BME280;5531;42.570;23.676;2023-05-20T06:37:46;92332.19;;;16.98;78.93
10958;BME280;5531;42.570;23.676;2023-05-20T06:40:15;92327.59;;;16.94;81.18
10958;BME280;5531;42.570;23.676;2023-05-20T06:42:45;92335.09;;;17.09;78.60
10958;BME280;5531;42.570;23.676;2023-05-20T06:45:14;92325.28;;;17.09;77.98
10958;BME280;5531;42.570;23.676;2023-05-20T06:47:45;92316.22;;;17.29;79.45
10958;BME280;5531;42.570;23.676;2023-05-20T06:50:15;92310.59;;;17.49;79.43
10958;BME280;5531;42.570;23.676;2023-05-20T06:52:44;92309.09;;;17.53;76.05
10958;BME280;5531;42.570;23.676;2023-05-20T06:55:13;92308.84;;;17.54;74.85
10958;BME280;5531;42.570;23.676;2023-05-20T06:57:43;92308.72;;;17.61;76.07
10958;BME280;5531;42.570;23.676;2023-05-20T07:00:13;92312.19;;;17.73;76.46
10958;BME280;5531;42.570;23.676;2023-05-20T07:02:42;92313.19;;;17.84;76.74
10958;BME280;5531;42.570;23.676;2023-05-20T07:05:14;92309.84;;;18.01;76.10
10958;BME280;5531;42.570;23.676;2023-05-20T07:07:43;92303.00;;;18.17;73.09
10958;BME280;5531;42.570;23.676;2023-05-20T07:10:12;92313.84;;;18.15;70.80
10958;BME280;5531;42.570;23.676;2023-05-20T07:12:41;92308.22;;;18.11;73.21
10958;BME280;5531;42.570;23.676;2023-05-20T07:15:10;92306.72;;;18.04;71.89
10958;BME280;5531;42.570;23.676;2023-05-20T07:17:39;92312.47;;;18.12;69.04
10958;BME280;5531;42.570;23.676;2023-05-20T07:20:09;92310.84;;;18.11;69.14
10958;BME280;5531;42.570;23.676;2023-05-20T07:22:41;92305.88;;;18.15;72.59
10958;BME280;5531;42.570;23.676;2023-05-20T07:25:10;92310.50;;;18.20;75.05
10958;BME280;5531;42.570;23.676;2023-05-20T07:27:39;92304.81;;;18.28;72.42
10958;BME280;5531;42.570;23.676;2023-05-20T07:30:09;92319.00;;;18.22;71.92
10958;BME280;5531;42.570;23.676;2023-05-20T07:32:38;92315.94;;;18.13;75.55
10958;BME280;5531;42.570;23.676;2023-05-20T07:35:08;92311.28;;;18.20;74.93
10958;BME280;5531;42.570;23.676;2023-05-20T07:37:39;92321.91;;;18.20;75.00
10958;BME280;5531;42.570;23.676;2023-05-20T07:40:09;92315.88;;;18.25;74.33
10958;BME280;5531;42.570;23.676;2023-05-20T07:42:39;92313.31;;;18.30;76.24
10958;BME280;5531;42.570;23.676;2023-05-20T07:45:09;92316.75;;;18.42;75.14
10958;BME280;5531;42.570;23.676;2023-05-20T07:47:38;92314.91;;;18.43;72.69
10958;BME280;5531;42.570;23.676;2023-05-20T07:50:08;92320.22;;;18.43;74.72
10958;BME280;5531;42.570;23.676;2023-05-20T07:52:37;92314.66;;;18.44;73.72
10958;BME280;5531;42.570;23.676;2023-05-20T07:55:08;92317.09;;;18.46;73.08
10958;BME280;5531;42.570;23.676;2023-05-20T07:57:37;92314.19;;;18.47;77.54
10958;BME280;5531;42.570;23.676;2023-05-20T08:00:08;92321.34;;;18.47;79.26
10958;BME280;5531;42.570;23.676;2023-05-20T08:02:38;92310.50;;;18.48;75.83
10958;BME280;5531;42.570;23.676;2023-05-20T08:05:08;92306.41;;;18.58;80.54
10958;BME280;5531;42.570;23.676;2023-05-20T08:07:37;92309.41;;;18.61;77.68
10958;BME280;5531;42.570;23.676;2023-05-20T08:10:09;92312.88;;;18.62;78.68
10958;BME280;5531;42.570;23.676;2023-05-20T08:12:38;92313.56;;;18.57;76.29
10958;BME280;5531;42.570;23.676;2023-05-20T08:15:09;92311.47;;;18.59;78.69
10958;BME280;5531;42.570;23.676;2023-05-20T08:17:38;92311.41;;;18.54;77.90
10958;BME280;5531;42.570;23.676;2023-05-20T08:20:08;92300.47;;;18.50;78.90
10958;BME280;5531;42.570;23.676;2023-05-20T08:22:37;92311.47;;;18.59;78.76
10958;BME280;5531;42.570;23.676;2023-05-20T08:25:10;92311.09;;;18.67;76.86
10958;BME280;5531;42.570;23.676;2023-05-20T08:27:39;92303.63;;;18.64;75.35
10958;BME280;5531;42.570;23.676;2023-05-20T08:30:09;92300.34;;;18.74;79.53
10958;BME280;5531;42.570;23.676;2023-05-20T08:32:38;92303.06;;;18.91;81.25
10958;BME280;5531;42.570;23.676;2023-05-20T08:35:08;92298.63;;;18.97;74.87
10958;BME280;5531;42.570;23.676;2023-05-20T08:37:37;92301.78;;;18.94;77.55
10958;BME280;5531;42.570;23.676;2023-05-20T08:40:11;92290.91;;;19.12;78.42
10958;BME280;5531;42.570;23.676;2023-05-20T08:42:41;92284.41;;;19.20;77.70
10958;BME280;5531;42.570;23.676;2023-05-20T08:45:12;92294.59;;;19.11;72.70
10958;BME280;5531;42.570;23.676;2023-05-20T08:47:42;92291.47;;;18.97;72.05
10958;BME280;5531;42.570;23.676;2023-05-20T08:50:12;92292.19;;;18.93;74.51
10958;BME280;5531;42.570;23.676;2023-05-20T08:52:43;92287.59;;;19.05;73.73
10958;BME280;5531;42.570;23.676;2023-05-20T08:55:17;92287.13;;;19.25;71.79
10958;BME280;5531;42.570;23.676;2023-05-20T08:57:49;92283.34;;;19.38;74.51
10958;BME280;5531;42.570;23.676;2023-05-20T09:00:19;92289.75;;;19.42;70.31
10958;BME280;5531;42.570;23.676;2023-05-20T09:02:52;92292.91;;;19.39;69.42
10958;BME280;5531;42.570;23.676;2023-05-20T09:05:21;92288.72;;;19.43;73.65
10958;BME280;5531;42.570;23.676;2023-05-20T09:07:50;92289.09;;;19.52;69.30
10958;BME280;5531;42.570;23.676;2023-05-20T09:10:22;92283.16;;;19.45;70.29
10958;BME280;5531;42.570;23.676;2023-05-20T09:12:51;92273.56;;;19.44;69.09
10958;BME280;5531;42.570;23.676;2023-05-20T09:15:20;92272.59;;;19.50;69.68
10958;BME280;5531;42.570;23.676;2023-05-20T09:17:49;92277.00;;;19.78;71.25
10958;BME280;5531;42.570;23.676;2023-05-20T09:20:20;92269.72;;;19.73;64.90
10958;BME280;5531;42.570;23.676;2023-05-20T09:22:50;92263.91;;;19.54;65.76
10958;BME280;5531;42.570;23.676;2023-05-20T09:25:23;92262.69;;;19.45;65.99
10958;BME280;5531;42.570;23.676;2023-05-20T09:27:52;92261.09;;;19.44;68.90
10958;BME280;5531;42.570;23.676;2023-05-20T09:30:22;92262.09;;;19.60;70.17
10958;BME280;5531;42.570;23.676;2023-05-20T09:32:54;92255.72;;;19.78;69.58
10958;BME280;5531;42.570;23.676;2023-05-20T09:35:24;92246.28;;;19.87;68.78
10958;BME280;5531;42.570;23.676;2023-05-20T09:37:55;92249.72;;;19.88;67.65
10958;BME280;5531;42.570;23.676;2023-05-20T09:40:28;92257.66;;;19.83;67.53
10958;BME280;5531;42.570;23.676;2023-05-20T09:43:01;92255.72;;;19.78;66.73
10958;BME280;5531;42.570;23.676;2023-05-20T09:45:31;92243.44;;;19.55;68.18
10958;BME280;5531;42.570;23.676;2023-05-20T09:48:01;92234.28;;;19.46;68.29
10958;BME280;5531;42.570;23.676;2023-05-20T09:50:31;92248.25;;;19.58;71.88
10958;BME280;5531;42.570;23.676;2023-05-20T09:53:02;92242.34;;;19.73;67.55
10958;BME280;5531;42.570;23.676;2023-05-20T09:55:34;92236.88;;;19.80;65.57
10958;BME280;5531;42.570;23.676;2023-05-20T09:58:04;92229.03;;;19.90;67.52
10958;BME280;5531;42.570;23.676;2023-05-20T10:00:33;92229.94;;;20.01;61.88
10958;BME280;5531;42.570;23.676;2023-05-20T10:03:03;92229.09;;;19.95;60.75
10958;BME280;5531;42.570;23.676;2023-05-20T10:05:37;92245.78;;;19.73;64.89
10958;BME280;5531;42.570;23.676;2023-05-20T10:08:29;92244.34;;;19.83;66.56
10958;BME280;5531;42.570;23.676;2023-05-20T10:11:11;92242.88;;;19.75;65.98
10958;BME280;5531;42.570;23.676;2023-05-20T10:13:52;92236.63;;;19.81;65.11
10958;BME280;5531;42.570;23.676;2023-05-20T10:16:40;92228.00;;;19.96;66.82
10958;BME280;5531;42.570;23.676;2023-05-20T10:19:19;92234.16;;;19.96;64.00
10958;BME280;5531;42.570;23.676;2023-05-20T10:22:00;92230.19;;;19.77;64.43
10958;BME280;5531;42.570;23.676;2023-05-20T10:24:31;92226.47;;;19.39;63.33
10958;BME280;5531;42.570;23.676;2023-05-20T10:27:06;92227.06;;;19.24;64.72
10958;BME280;5531;42.570;23.676;2023-05-20T10:29:43;92227.25;;;19.17;66.33
10958;BME280;5531;42.570;23.676;2023-05-20T10:32:23;92224.78;;;18.94;63.03
10958;BME280;5531;42.570;23.676;2023-05-20T10:34:57;92218.88;;;18.92;65.23
10958;BME280;5531;42.570;23.676;2023-05-20T10:37:31;92227.88;;;19.24;64.68
10958;BME280;5531;42.570;23.676;2023-05-20T10:40:10;92237.81;;;19.51;66.63
10958;BME280;5531;42.570;23.676;2023-05-20T10:42:42;92218.09;;;19.69;68.02
10958;BME280;5531;42.570;23.676;2023-05-20T10:45:24;92209.09;;;19.70;69.83
10958;BME280;5531;42.570;23.676;2023-05-20T10:47:55;92211.22;;;19.90;71.27
10958;BME280;5531;42.570;23.676;2023-05-20T10:50:28;92214.97;;;19.72;72.15
10958;BME280;5531;42.570;23.676;2023-05-20T10:53:03;92213.06;;;19.90;71.50
10958;BME280;5531;42.570;23.676;2023-05-20T10:55:36;92219.13;;;19.85;70.72
10958;BME280;5531;42.570;23.676;2023-05-20T10:58:09;92210.34;;;19.85;70.78
10958;BME280;5531;42.570;23.676;2023-05-20T11:00:38;92213.28;;;19.66;70.74
10958;BME280;5531;42.570;23.676;2023-05-20T11:03:08;92206.97;;;19.50;71.41
10958;BME280;5531;42.570;23.676;2023-05-20T11:05:38;92207.34;;;19.59;70.03
10958;BME280;5531;42.570;23.676;2023-05-20T11:08:08;92202.78;;;19.76;68.52
10958;BME280;5531;42.570;23.676;2023-05-20T11:10:37;92193.63;;;19.89;67.70
10958;BME280;5531;42.570;23.676;2023-05-20T11:13:11;92198.06;;;19.78;64.02
10958;BME280;5531;42.570;23.676;2023-05-20T11:15:41;92209.72;;;20.00;69.82
10958;BME280;5531;42.570;23.676;2023-05-20T11:18:10;92212.94;;;20.02;71.28
10958;BME280;5531;42.570;23.676;2023-05-20T11:20:40;92213.53;;;20.09;69.29
10958;BME280;5531;42.570;23.676;2023-05-20T11:23:12;92220.38;;;20.00;68.44
10958;BME280;5531;42.570;23.676;2023-05-20T11:25:42;92213.25;;;19.83;68.14
10958;BME280;5531;42.570;23.676;2023-05-20T11:28:14;92210.81;;;20.04;69.19
10958;BME280;5531;42.570;23.676;2023-05-20T11:30:44;92212.19;;;20.33;70.04
10958;BME280;5531;42.570;23.676;2023-05-20T11:33:14;92205.25;;;20.60;68.71
10958;BME280;5531;42.570;23.676;2023-05-20T11:35:44;92194.03;;;20.85;69.89
10958;BME280;5531;42.570;23.676;2023-05-20T11:38:15;92183.53;;;21.05;66.23
10958;BME280;5531;42.570;23.676;2023-05-20T11:40:45;92177.84;;;21.34;65.36
10958;BME280;5531;42.570;23.676;2023-05-20T11:43:18;92172.66;;;21.55;66.14
10958;BME280;5531;42.570;23.676;2023-05-20T11:45:53;92166.28;;;21.61;60.61
10958;BME280;5531;42.570;23.676;2023-05-20T11:48:24;92159.97;;;21.83;62.12
10958;BME280;5531;42.570;23.676;2023-05-20T11:50:55;92169.47;;;21.58;59.14
10958;BME280;5531;42.570;23.676;2023-05-20T11:53:24;92168.91;;;21.56;62.71
10958;BME280;5531;42.570;23.676;2023-05-20T11:55:54;92180.88;;;20.41;65.11
10958;BME280;5531;42.570;23.676;2023-05-20T11:58:28;92190.84;;;20.01;69.35
10958;BME280;5531;42.570;23.676;2023-05-20T12:00:58;92196.00;;;19.86;72.42
10958;BME280;5531;42.570;23.676;2023-05-20T12:03:27;92192.63;;;19.51;73.71
10958;BME280;5531;42.570;23.676;2023-05-20T12:05:56;92193.44;;;19.30;76.30
10958;BME280;5531;42.570;23.676;2023-05-20T12:08:28;92189.69;;;19.31;76.62
10958;BME280;5531;42.570;23.676;2023-05-20T12:10:57;92191.50;;;19.47;76.85
10958;BME280;5531;42.570;23.676;2023-05-20T12:13:29;92194.88;;;19.59;76.17
10958;BME280;5531;42.570;23.676;2023-05-20T12:15:58;92187.75;;;19.65;71.53
10958;BME280;5531;42.570;23.676;2023-05-20T12:18:28;92183.50;;;19.64;68.50
10958;BME280;5531;42.570;23.676;2023-05-20T12:20:58;92179.22;;;19.63;66.62
10958;BME280;5531;42.570;23.676;2023-05-20T12:23:27;92179.28;;;19.68;64.81
10958;BME280;5531;42.570;23.676;2023-05-20T12:25:59;92175.13;;;19.55;70.71
10958;BME280;5531;42.570;23.676;2023-05-20T12:28:30;92179.09;;;19.75;69.81
10958;BME280;5531;42.570;23.676;2023-05-20T12:31:00;92185.56;;;19.79;66.82
10958;BME280;5531;42.570;23.676;2023-05-20T12:33:29;92187.78;;;19.87;66.43
10958;BME280;5531;42.570;23.676;2023-05-20T12:35:58;92184.13;;;19.93;65.78
10958;BME280;5531;42.570;23.676;2023-05-20T12:38:27;92179.84;;;19.92;65.40
10958;BME280;5531;42.570;23.676;2023-05-20T12:40:56;92181.06;;;19.40;73.09
10958;BME280;5531;42.570;23.676;2023-05-20T12:43:25;92169.66;;;19.01;73.71
10958;BME280;5531;42.570;23.676;2023-05-20T12:45:57;92177.38;;;18.52;76.96
10958;BME280;5531;42.570;23.676;2023-05-20T12:48:29;92177.19;;;18.41;79.83
10958;BME280;5531;42.570;23.676;2023-05-20T12:50:58;92176.63;;;18.39;80.72
10958;BME280;5531;42.570;23.676;2023-05-20T12:53:27;92177.66;;;18.38;83.06
10958;BME280;5531;42.570;23.676;2023-05-20T12:55:56;92171.16;;;18.29;83.37
10958;BME280;5531;42.570;23.676;2023-05-20T12:58:25;92165.97;;;18.05;83.02
10958;BME280;5531;42.570;23.676;2023-05-20T13:00:57;92156.81;;;17.84;83.83
10958;BME280;5531;42.570;23.676;2023-05-20T13:03:26;92152.41;;;17.61;84.31
10958;BME280;5531;42.570;23.676;2023-05-20T13:05:56;92140.25;;;17.48;82.80
10958;BME280;5531;42.570;23.676;2023-05-20T13:08:26;92134.75;;;17.38;83.76
10958;BME280;5531;42.570;23.676;2023-05-20T13:10:55;92137.91;;;17.23;85.57
10958;BME280;5531;42.570;23.676;2023-05-20T13:13:24;92126.94;;;17.31;88.04